ADDS TAF Board (Experimental) INFO Settings
IDs: Format: Expanded Condensed

KMEM - Memphis Intl, TN, US

Issued at 0257 UTC 25 Jun 2016
Updated at: 0506 UTC 25 Jun 2016
Time0454Z 25/06Z 25/07Z 25/08Z 25/09Z 25/10Z 25/11Z 25/12Z 25/13Z 25/14Z 25/15Z 25/16Z 25/17Z 25/18Z
Type OBS PRVL PRVL PRVL PRVL PRVL PRVL PRVL PRVL PRVL PRVL PRVL PRVL PRVL
VIS 10 >6 >6 >6 >6 >6 >6 >6 >6 >6 >6 >6 >6 >6
CIG -- -- -- -- -- -- -- -- -- -- -- -- -- --
Cover SCT SCT SCT SCT SCT SCT SCT SCT SCT SCT SCT SCT SCT SCT
FltCat VFR VFR VFR VFR VFR VFR VFR VFR VFR VFR VFR VFR VFR VFR
WX -- -- -- -- -- -- -- -- -- -- -- -- -- --
WDir 210 140 140 140 140 140 140 140 140 140 140 230 230 230
WSpd 3 5 5 5 5 5 5 5 5 5 5 6 6 6
WGst -- -- -- -- -- -- -- -- -- -- -- -- -- --
R09/27
XWnd -3 -4 -4 -4 -4 -4 -4 -4 -4 -4 -4 -4 -4 -4
HWnd -1 3 3 3 3 3 3 3 3 3 3 -4 -4 -4
R18/36
XWnd -2 3 3 3 3 3 3 3 3 3 3 -5 -5 -5
HWnd 3 4 4 4 4 4 4 4 4 4 4 4 4 4

NOTE: TEMPO conditions in [brackets]. Keep in mind TEMPO conditions might be better (lower impact) than prevailing conditions.

Raw TAF
KMEM 250257Z 2503/2524 14005KT P6SM FEW050 SCT250
  FM251600 23006KT P6SM SCT050 SCT250


Raw METAR
KMEM 250454Z 21003KT 10SM FEW049 SCT100 SCT250 29/23 A3003 RMK AO2 SLP164 T02890233
KMEM 250354Z 22004KT 10SM FEW050 SCT250 29/23 A3002 RMK AO2 SLP162 T02940233
KMEM 250254Z 19006KT 10SM FEW049 SCT250 30/25 A3001 RMK AO2 SLP158 T03000250 53007

METAR Board
Radar Display
Forecast Discussion

TAF Board Legend

Potential Impact
Threat None Slight Moderate High
Visibility (sm) ≥5.1 5.1>X≥3 3>X≥1 <1
Ceiling (100 ft) ≥30.1 30.1>X≥10 10>X≥5 <5
Wind Speed (kt) <10 10≤X<20 20≤X<30 ≥30
Wind Gust (kt) <15 15≤X<25 25≤X<35 ≥35
Weather No Wx Reported VCTS,-TS,-FZRA,SN TS,FZRA +TS,+FZRA,+SN